Time;durP1;ratioP1;P1;durP2;ratioP2;P2;SDS_P1;SDS_P2;PMS_P1;PMS_P2;Temp;Humidity;BMP_temperature;BMP_pressure;BME280_temperature;BME280_humidity;BME280_pressure;Samples;Min_cycle;Max_cycle;Signal;HPM_P1;HPM_P2
2022/10/18 00:00:33;;;;;;;32.33;23.15;;;;;;;14.26;100.00;102472.47;5024087;28;20358;-66
2022/10/18 00:02:59;;;;;;;36.38;25.13;;;;;;;14.27;100.00;102466.72;5021395;28;20040;-67
2022/10/18 00:05:24;;;;;;;30.88;22.63;;;;;;;14.27;100.00;102468.63;5024822;28;20064;-67
2022/10/18 00:07:49;;;;;;;29.77;21.98;;;;;;;14.26;100.00;102466.94;5026058;28;20022;-67
2022/10/18 00:10:14;;;;;;;33.20;22.10;;;;;;;14.30;100.00;102470.13;5025502;28;20113;-67
2022/10/18 00:12:40;;;;;;;28.98;22.33;;;;;;;14.27;100.00;102457.56;5026152;28;20099;-67
2022/10/18 00:15:06;;;;;;;30.63;22.60;;;;;;;14.25;100.00;102463.31;5023749;28;20073;-66
2022/10/18 00:17:36;;;;;;;33.92;21.83;;;;;;;14.24;100.00;102464.41;5025259;28;20310;-66
2022/10/18 00:20:01;;;;;;;30.92;20.98;;;;;;;14.22;100.00;102460.13;5020886;28;20092;-67
2022/10/18 00:22:27;;;;;;;31.83;21.77;;;;;;;14.22;100.00;102466.50;5006156;28;20034;-67
2022/10/18 00:24:52;;;;;;;34.05;22.10;;;;;;;14.23;100.00;102450.78;5015994;28;20096;-66
2022/10/18 00:27:17;;;;;;;30.67;21.77;;;;;;;14.23;100.00;102456.28;5025718;28;20053;-66
2022/10/18 00:29:43;;;;;;;31.33;20.90;;;;;;;14.22;100.00;102462.91;5022036;28;20037;-67
2022/10/18 00:32:08;;;;;;;27.65;21.23;;;;;;;14.20;100.00;102456.75;5024786;28;20034;-67
2022/10/18 00:34:33;;;;;;;27.38;20.40;;;;;;;14.18;100.00;102458.84;5023976;28;20037;-66
2022/10/18 00:36:59;;;;;;;30.15;20.83;;;;;;;14.17;100.00;102470.97;5025344;28;20048;-67
2022/10/18 00:39:24;;;;;;;29.80;19.75;;;;;;;14.16;100.00;102466.53;5026209;28;20404;-66
2022/10/18 00:41:50;;;;;;;30.38;20.73;;;;;;;14.16;100.00;102463.75;5024668;28;20048;-66
2022/10/18 00:44:15;;;;;;;29.30;21.55;;;;;;;14.13;100.00;102459.50;5025438;28;20033;-66
2022/10/18 00:46:43;;;;;;;28.70;20.83;;;;;;;14.11;100.00;102461.63;5028679;28;20083;-66
2022/10/18 00:49:14;;;;;;;;;;;;;;;14.20;100.00;102462.28;5029861;28;20526;-66
2022/10/18 00:51:50;;;;;;;33.95;20.90;;;;;;;14.12;100.00;102460.56;5029256;28;19968;-66
2022/10/18 00:54:17;;;;;;;27.10;19.95;;;;;;;14.08;100.00;102458.44;5028644;28;20124;-66
2022/10/18 00:56:44;;;;;;;34.72;21.80;;;;;;;14.08;100.00;102461.22;5026806;28;20072;-67
2022/10/18 00:59:12;;;;;;;31.52;22.23;;;;;;;14.07;100.00;102462.28;5025615;28;20068;-67
2022/10/18 01:01:37;;;;;;;32.22;21.52;;;;;;;14.10;100.00;102470.16;5026744;28;20045;-66
2022/10/18 01:04:03;;;;;;;29.52;21.38;;;;;;;14.09;100.00;102480.38;5025271;28;20493;-66
2022/10/18 01:06:28;;;;;;;29.77;20.98;;;;;;;14.08;100.00;102475.03;5029894;28;20411;-67
2022/10/18 01:09:23;;;;;;;31.60;21.98;;;;;;;14.10;100.00;102481.22;5030137;28;20104;-66
2022/10/18 01:12:31;;;;;;;28.67;20.85;;;;;;;14.12;100.00;102479.91;5028823;28;20175;-68
2022/10/18 01:15:21;;;;;;;30.30;21.05;;;;;;;14.14;100.00;102486.09;5027600;28;20124;-67
2022/10/18 01:18:22;;;;;;;31.15;22.80;;;;;;;14.15;100.00;102476.72;5030668;28;20034;-67
2022/10/18 01:20:50;;;;;;;30.23;21.95;;;;;;;14.13;100.00;102478.00;5029008;28;20092;-67
2022/10/18 01:23:46;;;;;;;33.17;22.33;;;;;;;14.16;100.00;102481.19;5028815;28;20480;-66
2022/10/18 01:26:44;;;;;;;35.88;21.70;;;;;;;14.13;100.00;102478.84;5027824;28;20113;-66
2022/10/18 01:29:12;;;;;;;29.23;21.65;;;;;;;14.03;100.00;102484.81;4975785;28;20045;-66
2022/10/18 01:31:58;;;;;;;26.75;21.00;;;;;;;14.02;100.00;102477.59;5027528;28;20029;-67
2022/10/18 01:34:27;;;;;;;29.33;20.42;;;;;;;14.02;100.00;102491.41;5028609;28;20030;-67
2022/10/18 01:36:55;;;;;;;31.23;20.13;;;;;;;13.98;100.00;102484.59;5028258;28;20627;-66
2022/10/18 01:39:23;;;;;;;;;;;;;;;14.07;100.00;102487.16;5028747;28;20029;-67
2022/10/18 01:41:51;;;;;;;27.45;19.95;;;;;;;14.01;100.00;102486.09;5027927;28;20391;-68
2022/10/18 01:44:28;;;;;;;29.27;21.52;;;;;;;14.00;100.00;102482.47;5028204;28;20034;-66
2022/10/18 01:46:55;;;;;;;29.83;20.95;;;;;;;13.99;100.00;102482.72;5027989;28;20044;-66
2022/10/18 01:49:22;;;;;;;29.83;20.95;;;;;;;14.00;100.00;102484.41;5028942;28;20036;-66
2022/10/18 01:51:48;;;;;;;30.50;21.27;;;;;;;13.98;100.00;102487.34;5028208;28;20469;-66
2022/10/18 01:54:20;;;;;;;25.95;20.52;;;;;;;13.97;100.00;102491.19;5026092;28;20061;-66
2022/10/18 01:57:13;;;;;;;30.52;21.08;;;;;;;13.98;100.00;102480.97;5027718;28;20042;-66
2022/10/18 02:00:02;;;;;;;28.67;19.77;;;;;;;13.99;100.00;102489.06;5027115;28;20037;-66
2022/10/18 02:02:48;;;;;;;28.50;21.83;;;;;;;13.97;100.00;102491.19;5015051;28;20041;-67
2022/10/18 02:05:28;;;;;;;32.22;21.50;;;;;;;13.95;100.00;102486.97;5027875;28;20033;-66
2022/10/18 02:08:07;;;;;;;28.27;20.70;;;;;;;13.92;100.00;102490.97;5028184;28;20456;-66
2022/10/18 02:10:38;;;;;;;31.70;22.13;;;;;;;13.92;100.00;102495.66;5028072;28;20021;-66
2022/10/18 02:13:03;;;;;;;32.05;22.23;;;;;;;13.91;100.00;102491.19;5026305;28;20047;-66
2022/10/18 02:15:34;;;;;;;30.55;22.20;;;;;;;13.89;100.00;102494.19;5027240;28;20033;-67
2022/10/18 02:18:04;;;;;;;33.30;23.73;;;;;;;13.88;100.00;102486.94;5027203;28;20532;-66
2022/10/18 02:20:31;;;;;;;31.83;21.92;;;;;;;13.87;100.00;102478.88;5027132;28;20033;-66
2022/10/18 02:22:59;;;;;;;31.80;22.15;;;;;;;13.85;100.00;102481.84;5010738;28;20030;-66
2022/10/18 02:25:27;;;;;;;30.80;22.73;;;;;;;13.83;100.00;102483.97;5028559;28;20029;-66
2022/10/18 02:27:54;;;;;;;29.48;20.63;;;;;;;13.80;100.00;102491.84;5025727;28;20029;-66
2022/10/18 02:30:26;;;;;;;26.08;19.92;;;;;;;13.80;100.00;102489.94;5027576;28;20396;-67
2022/10/18 02:33:02;;;;;;;26.48;19.80;;;;;;;13.74;100.00;102480.59;5026376;28;20035;-66
2022/10/18 02:35:34;;;;;;;26.35;20.25;;;;;;;13.74;100.00;102485.25;5016592;28;20103;-66
2022/10/18 02:38:01;;;;;;;26.33;19.60;;;;;;;13.71;100.00;102482.91;5027549;28;20037;-66
2022/10/18 02:40:27;;;;;;;28.07;19.53;;;;;;;13.69;100.00;102485.88;5027119;28;20026;-65
2022/10/18 02:42:56;;;;;;;31.55;20.75;;;;;;;13.67;100.00;102490.75;5026580;28;20773;-66
2022/10/18 02:45:22;;;;;;;28.83;21.45;;;;;;;13.70;100.00;102492.25;5028369;28;20045;-67
2022/10/18 02:47:48;;;;;;;29.85;21.83;;;;;;;13.70;100.00;102490.34;5027955;28;20179;-66
2022/10/18 02:50:13;;;;;;;27.15;20.83;;;;;;;13.71;100.00;102489.28;5026458;28;20030;-66
2022/10/18 02:52:39;;;;;;;31.30;22.40;;;;;;;13.74;100.00;102496.31;5027746;28;20171;-67
2022/10/18 02:55:06;;;;;;;31.50;23.73;;;;;;;13.74;100.00;102490.78;5027437;28;20588;-66
2022/10/18 02:57:31;;;;;;;31.20;21.98;;;;;;;13.76;100.00;102491.41;5026695;28;20048;-66
2022/10/18 02:59:57;;;;;;;32.28;22.05;;;;;;;13.79;100.00;102501.16;5027683;28;20536;-66
2022/10/18 03:02:22;;;;;;;33.28;22.63;;;;;;;13.78;100.00;102489.28;5024874;28;20036;-67
2022/10/18 03:04:48;;;;;;;33.70;21.05;;;;;;;13.77;100.00;102491.19;5025362;28;20041;-67
2022/10/18 03:07:13;;;;;;;33.58;24.23;;;;;;;13.80;100.00;102498.22;5024799;28;20080;-67
2022/10/18 03:09:38;;;;;;;32.87;22.17;;;;;;;13.82;100.00;102500.75;5027277;28;20444;-66
2022/10/18 03:12:04;;;;;;;34.28;22.60;;;;;;;13.82;100.00;102507.13;5025761;28;20292;-67
2022/10/18 03:14:29;;;;;;;26.70;20.67;;;;;;;13.83;100.00;102502.44;5024780;28;20030;-66
2022/10/18 03:16:55;;;;;;;35.22;21.27;;;;;;;13.82;100.00;102498.00;5025532;28;20032;-66
2022/10/18 03:19:20;;;;;;;31.88;22.75;;;;;;;13.83;100.00;102503.28;5027256;28;20065;-66
2022/10/18 03:21:45;;;;;;;31.27;22.15;;;;;;;13.78;100.00;102500.31;5024037;28;20025;-66
2022/10/18 03:24:11;;;;;;;31.27;23.88;;;;;;;13.79;100.00;102496.53;5023126;28;20399;-66
2022/10/18 03:26:36;;;;;;;35.13;24.63;;;;;;;13.81;100.00;102490.78;5025298;28;20033;-67
2022/10/18 03:29:01;;;;;;;36.80;24.10;;;;;;;13.83;100.00;102494.16;5025834;28;20042;-66
2022/10/18 03:31:26;;;;;;;36.22;25.30;;;;;;;13.82;100.00;102501.59;5025498;28;20025;-66
2022/10/18 03:33:52;;;;;;;44.75;26.50;;;;;;;13.82;100.00;102504.34;5016410;28;20029;-66
2022/10/18 03:36:17;;;;;;;41.80;26.57;;;;;;;13.82;100.00;102500.75;5012977;28;20356;-66
2022/10/18 03:38:42;;;;;;;43.13;28.25;;;;;;;13.82;100.00;102506.28;5026584;28;20284;-66
2022/10/18 03:41:09;;;;;;;39.83;25.27;;;;;;;13.81;100.00;102504.59;5026302;28;20026;-66
2022/10/18 03:43:34;;;;;;;44.05;26.98;;;;;;;13.80;100.00;102512.03;5025404;28;20228;-66
2022/10/18 03:46:00;;;;;;;46.55;27.35;;;;;;;13.80;100.00;102502.88;5024630;28;20668;-66
2022/10/18 03:48:25;;;;;;;55.45;33.20;;;;;;;13.84;100.00;102506.91;5026141;28;20017;-66
2022/10/18 03:50:50;;;;;;;40.80;24.30;;;;;;;13.80;100.00;102500.13;5024878;28;20036;-66
2022/10/18 03:53:16;;;;;;;37.88;23.80;;;;;;;13.79;100.00;102501.16;5024350;28;20372;-66
2022/10/18 03:55:41;;;;;;;47.50;29.65;;;;;;;13.80;100.00;102500.13;5025111;28;20025;-66
2022/10/18 03:58:07;;;;;;;50.08;28.58;;;;;;;13.79;100.00;102499.28;5024584;28;20033;-67
2022/10/18 04:00:32;;;;;;;52.58;27.83;;;;;;;13.75;100.00;102490.56;5021840;28;20032;-66
2022/10/18 04:02:58;;;;;;;44.75;27.23;;;;;;;13.71;100.00;102481.00;5024318;28;20030;-66
2022/10/18 04:05:25;;;;;;;43.25;27.35;;;;;;;13.70;100.00;102478.44;5034342;28;114353;-67
2022/10/18 04:07:51;;;;;;;44.17;27.10;;;;;;;13.71;100.00;102480.16;5024942;28;20499;-66
2022/10/18 04:10:17;;;;;;;39.67;26.45;;;;;;;13.71;100.00;102474.63;5024464;28;20041;-66
2022/10/18 04:12:42;;;;;;;53.35;28.98;;;;;;;13.70;100.00;102478.44;5025444;28;20117;-66
2022/10/18 04:15:09;;;;;;;54.80;29.63;;;;;;;13.70;100.00;102479.31;5025082;28;20117;-64
2022/10/18 04:17:34;;;;;;;53.70;31.67;;;;;;;13.71;100.00;102480.16;5024844;28;20084;-64
2022/10/18 04:19:59;;;;;;;65.57;34.35;;;;;;;13.73;100.00;102481.63;5027654;28;20053;-64
2022/10/18 04:22:25;;;;;;;74.72;34.28;;;;;;;13.74;100.00;102485.25;5026171;28;20770;-63
2022/10/18 04:24:52;;;;;;;66.78;33.63;;;;;;;13.75;100.00;102493.31;5029247;28;20044;-64
2022/10/18 04:27:17;;;;;;;68.40;33.72;;;;;;;13.77;100.00;102495.84;5027657;28;20028;-64
2022/10/18 04:29:42;;;;;;;67.18;31.30;;;;;;;13.75;100.00;102498.00;5030877;28;20025;-64
2022/10/18 04:32:07;;;;;;;87.18;33.70;;;;;;;13.75;100.00;102495.22;5029944;28;20057;-64
2022/10/18 04:34:33;;;;;;;96.20;36.17;;;;;;;13.75;100.00;102501.59;5030927;28;20036;-64
2022/10/18 04:36:58;;;;;;;106.77;38.30;;;;;;;13.73;100.00;102503.72;5027713;28;20055;-64
2022/10/18 04:39:23;;;;;;;103.85;36.50;;;;;;;13.74;100.00;102499.91;5029212;28;20292;-64
2022/10/18 04:41:49;;;;;;;127.78;38.47;;;;;;;13.75;100.00;102498.84;5029850;28;20454;-65
2022/10/18 04:44:14;;;;;;;136.27;38.05;;;;;;;13.74;100.00;102508.19;5029820;28;20464;-64
2022/10/18 04:46:39;;;;;;;160.63;40.83;;;;;;;13.75;100.00;102509.03;5030198;28;20021;-64
2022/10/18 04:49:04;;;;;;;244.50;41.30;;;;;;;13.75;100.00;102507.13;5029871;28;20435;-64
2022/10/18 04:51:30;;;;;;;122.07;37.60;;;;;;;13.75;100.00;102498.00;5029150;28;20065;-64
2022/10/18 04:53:56;;;;;;;94.43;37.92;;;;;;;13.74;100.00;102502.69;5030198;28;20064;-64
2022/10/18 04:56:21;;;;;;;167.27;40.10;;;;;;;13.73;100.00;102495.44;5030166;28;20471;-64
2022/10/18 04:58:46;;;;;;;101.30;39.38;;;;;;;13.73;100.00;102489.91;5029321;28;20131;-64
2022/10/18 05:01:12;;;;;;;93.75;37.00;;;;;;;13.72;100.00;102493.72;5029279;28;20033;-64
2022/10/18 05:03:37;;;;;;;74.07;35.30;;;;;;;13.70;100.00;102504.16;5028392;28;20025;-64
2022/10/18 05:06:04;;;;;;;87.50;36.75;;;;;;;13.72;100.00;102501.16;5028832;28;20034;-64
2022/10/18 05:08:31;;;;;;;81.43;35.00;;;;;;;13.70;100.00;102503.31;5030105;28;20633;-64
2022/10/18 05:10:56;;;;;;;92.53;35.03;;;;;;;13.69;100.00;102515.41;5029383;28;20357;-64
2022/10/18 05:13:22;;;;;;;86.70;36.03;;;;;;;13.70;100.00;102520.72;5029080;28;20037;-63
2022/10/18 05:15:47;;;;;;;93.03;37.65;;;;;;;13.68;100.00;102517.31;5029751;28;20036;-64
2022/10/18 05:18:12;;;;;;;112.63;37.27;;;;;;;13.67;100.00;102518.38;5029774;28;20361;-64
2022/10/18 05:20:37;;;;;;;106.00;36.05;;;;;;;13.65;100.00;102514.97;5029092;28;20280;-64
2022/10/18 05:23:03;;;;;;;133.47;39.63;;;;;;;13.64;100.00;102521.56;5029159;28;20048;-64
2022/10/18 05:25:29;;;;;;;119.22;38.33;;;;;;;13.60;100.00;102523.03;5029225;28;20284;-64
2022/10/18 05:27:54;;;;;;;117.82;36.33;;;;;;;13.59;100.00;102532.38;5028267;28;20083;-64
2022/10/18 05:30:20;;;;;;;116.38;37.35;;;;;;;13.57;100.00;102523.44;5028751;28;20029;-65
2022/10/18 05:32:45;;;;;;;75.72;35.45;;;;;;;13.55;100.00;102527.50;5028835;28;20029;-64
2022/10/18 05:35:11;;;;;;;82.82;34.13;;;;;;;13.52;100.00;102522.38;5028271;28;20045;-64
2022/10/18 05:37:36;;;;;;;100.28;34.08;;;;;;;13.47;100.00;102529.38;5029668;28;20061;-64
2022/10/18 05:40:01;;;;;;;78.68;33.03;;;;;;;13.46;100.00;102532.34;5028519;28;20051;-64
2022/10/18 05:42:27;;;;;;;74.35;33.85;;;;;;;13.41;100.00;102535.72;5028605;28;20038;-65
2022/10/18 05:44:52;;;;;;;58.10;32.17;;;;;;;13.40;100.00;102536.81;5029142;28;20030;-65
2022/10/18 05:47:17;;;;;;;69.82;31.83;;;;;;;13.37;100.00;102539.13;5029130;28;20276;-63
2022/10/18 05:49:43;;;;;;;54.03;31.17;;;;;;;13.30;100.00;102532.75;5028182;28;20069;-63
2022/10/18 05:52:08;;;;;;;96.97;33.35;;;;;;;13.27;100.00;102531.22;5027893;28;20040;-64
2022/10/18 05:54:33;;;;;;;57.88;30.05;;;;;;;13.24;100.00;102539.94;5028918;28;20384;-64
2022/10/18 05:56:58;;;;;;;64.35;31.30;;;;;;;13.21;100.00;102534.78;5027335;28;20028;-65
2022/10/18 05:59:24;;;;;;;59.70;29.58;;;;;;;13.19;100.00;102536.91;5028959;28;20029;-65
2022/10/18 06:01:49;;;;;;;70.25;29.98;;;;;;;13.15;100.00;102530.09;5027973;28;20583;-64
2022/10/18 06:04:16;;;;;;;61.07;29.73;;;;;;;13.13;100.00;102544.13;5028505;28;20056;-64
2022/10/18 06:06:42;;;;;;;58.33;31.00;;;;;;;13.10;100.00;102543.66;5028181;28;20276;-64
2022/10/18 06:09:08;;;;;;;47.45;28.13;;;;;;;13.07;100.00;102538.56;5028634;28;20034;-65
2022/10/18 06:11:34;;;;;;;51.83;27.85;;;;;;;13.01;100.00;102547.66;5028097;28;20025;-65
2022/10/18 06:14:00;;;;;;;55.65;27.15;;;;;;;12.95;100.00;102539.16;5026725;28;20017;-66
2022/10/18 06:16:26;;;;;;;49.60;28.10;;;;;;;12.90;100.00;102538.06;5027890;28;20117;-66
2022/10/18 06:18:54;;;;;;;49.90;27.45;;;;;;;12.89;100.00;102551.00;5028031;28;20029;-66
2022/10/18 06:21:20;;;;;;;47.13;27.63;;;;;;;12.88;100.00;102553.97;5021961;28;20206;-66
2022/10/18 06:23:52;;;;;;;53.45;29.65;;;;;;;12.87;100.00;102555.00;5027480;28;20454;-66
2022/10/18 06:26:17;;;;;;;51.80;27.73;;;;;;;12.85;100.00;102560.72;5028119;28;20074;-65
2022/10/18 06:28:43;;;;;;;43.83;27.52;;;;;;;12.84;100.00;102570.06;5026949;28;20108;-66
2022/10/18 06:31:10;;;;;;;49.03;28.52;;;;;;;12.81;100.00;102566.84;5026329;28;20029;-66
2022/10/18 06:33:36;;;;;;;46.30;25.25;;;;;;;12.82;100.00;102568.56;5025947;28;20464;-66
2022/10/18 06:36:21;;;;;;;47.63;26.10;;;;;;;12.85;100.00;102569.00;5026613;28;20040;-65
2022/10/18 06:38:47;;;;;;;43.22;26.95;;;;;;;12.79;100.00;102569.81;5025469;28;20373;-65
2022/10/18 06:41:12;;;;;;;42.90;26.20;;;;;;;12.78;100.00;102579.16;5024050;28;20029;-66
2022/10/18 06:43:38;;;;;;;42.72;25.70;;;;;;;12.83;100.00;102587.66;5024956;28;20039;-66
2022/10/18 06:46:06;;;;;;;45.78;25.98;;;;;;;12.84;100.00;102592.13;5024512;28;20022;-66
2022/10/18 06:48:32;;;;;;;46.17;27.27;;;;;;;12.82;100.00;102591.47;5026465;28;20091;-66
2022/10/18 06:50:59;;;;;;;47.53;27.38;;;;;;;12.81;100.00;102603.56;5025451;28;20025;-66
2022/10/18 06:53:27;;;;;;;47.33;26.20;;;;;;;12.83;100.00;102597.84;5026043;28;20045;-66
2022/10/18 06:55:57;;;;;;;50.30;28.42;;;;;;;12.84;100.00;102596.78;5025519;28;20021;-66
2022/10/18 06:58:22;;;;;;;48.45;28.75;;;;;;;12.86;100.00;102590.00;5025260;28;20497;-65
2022/10/18 07:00:48;;;;;;;47.10;29.15;;;;;;;12.89;100.00;102602.56;5025918;28;20156;-66
2022/10/18 07:03:13;;;;;;;49.80;32.35;;;;;;;12.91;100.00;102617.81;5024423;28;20080;-66
2022/10/18 07:05:38;;;;;;;56.53;33.75;;;;;;;12.96;100.00;102614.47;5005901;28;20089;-66
2022/10/18 07:08:03;;;;;;;50.60;31.95;;;;;;;13.01;100.00;102613.84;5005762;28;20030;-67
2022/10/18 07:10:29;;;;;;;52.25;31.35;;;;;;;13.08;100.00;102610.09;5006015;28;20121;-66
2022/10/18 07:12:55;;;;;;;53.78;32.33;;;;;;;13.13;100.00;102610.31;5006754;28;20065;-66
2022/10/18 07:15:22;;;;;;;46.75;31.80;;;;;;;13.24;100.00;102618.03;5007655;28;20049;-66
2022/10/18 07:17:48;;;;;;;46.92;31.88;;;;;;;13.34;100.00;102634.22;5020898;28;20084;-66
2022/10/18 07:20:13;;;;;;;54.53;31.10;;;;;;;13.38;100.00;102637.41;5026594;28;20037;-66
2022/10/18 07:22:38;;;;;;;45.83;31.00;;;;;;;13.47;100.00;102634.25;5026094;28;20026;-66
2022/10/18 07:25:07;;;;;;;48.78;28.45;;;;;;;13.50;100.00;102644.06;5024775;28;20029;-65
2022/10/18 07:27:40;;;;;;;52.47;28.58;;;;;;;13.55;100.00;102635.16;5024957;28;20116;-65
2022/10/18 07:30:07;;;;;;;48.58;28.08;;;;;;;13.63;100.00;102638.56;5032749;28;20108;-65
2022/10/18 07:32:33;;;;;;;53.38;27.65;;;;;;;13.67;100.00;102647.28;5025270;28;20022;-65
2022/10/18 07:34:58;;;;;;;47.50;24.10;;;;;;;13.68;100.00;102649.00;5024389;28;20029;-65
2022/10/18 07:37:23;;;;;;;37.97;23.88;;;;;;;13.70;100.00;102655.19;5024293;28;20608;-65
2022/10/18 07:39:49;;;;;;;38.65;21.83;;;;;;;13.70;100.00;102660.69;5022655;28;20198;-65
2022/10/18 07:42:14;;;;;;;32.50;22.30;;;;;;;13.70;100.00;102664.31;5022133;28;20034;-65
2022/10/18 07:44:39;;;;;;;40.08;23.55;;;;;;;13.70;100.00;102680.03;5024104;28;20029;-64
2022/10/18 07:47:05;;;;;;;37.13;22.20;;;;;;;13.68;100.00;102680.22;5017821;28;20075;-64
2022/10/18 07:49:30;;;;;;;38.17;23.13;;;;;;;13.72;100.00;102675.97;5016144;28;20049;-65
2022/10/18 07:51:55;;;;;;;36.22;24.70;;;;;;;13.77;100.00;102683.66;5023137;28;20036;-65
2022/10/18 07:54:21;;;;;;;37.10;23.40;;;;;;;13.80;100.00;102683.25;5026335;28;20033;-65
2022/10/18 07:56:46;;;;;;;33.10;23.73;;;;;;;13.81;100.00;102684.09;5023271;28;20057;-65
2022/10/18 07:59:12;;;;;;;32.97;23.58;;;;;;;13.85;100.00;102693.69;5025919;28;20113;-65
2022/10/18 08:01:37;;;;;;;32.70;23.25;;;;;;;13.87;100.00;102699.84;5025912;28;20025;-65
2022/10/18 08:04:02;;;;;;;39.30;23.17;;;;;;;13.90;100.00;102699.44;5026136;28;20046;-65
2022/10/18 08:06:28;;;;;;;43.00;23.60;;;;;;;13.93;100.00;102699.84;5025161;28;20037;-65
2022/10/18 08:08:53;;;;;;;39.33;25.27;;;;;;;14.00;100.00;102695.22;5026602;28;20026;-65
2022/10/18 08:11:21;;;;;;;40.63;24.13;;;;;;;14.13;100.00;102710.09;5026352;28;20052;-66
2022/10/18 08:13:46;;;;;;;33.75;24.05;;;;;;;14.25;100.00;102717.59;5025433;28;20385;-65
2022/10/18 08:16:16;;;;;;;38.80;23.55;;;;;;;14.31;100.00;102710.38;5024850;28;20033;-65
2022/10/18 08:18:41;;;;;;;32.58;23.52;;;;;;;14.39;100.00;102721.19;5027038;28;20077;-65
2022/10/18 08:21:12;;;;;;;36.38;22.73;;;;;;;14.49;100.00;102721.66;5025969;28;20061;-65
2022/10/18 08:23:40;;;;;;;36.10;22.23;;;;;;;14.57;100.00;102714.25;5025230;28;20473;-66
2022/10/18 08:26:08;;;;;;;31.48;21.55;;;;;;;14.73;100.00;102722.97;5024322;28;20028;-65
2022/10/18 08:28:35;;;;;;;35.78;22.02;;;;;;;14.92;100.00;102717.66;5023506;28;20105;-66
2022/10/18 08:31:04;;;;;;;34.72;22.52;;;;;;;15.16;100.00;102716.16;5022305;28;20472;-66
2022/10/18 08:33:30;;;;;;;35.88;22.55;;;;;;;15.25;100.00;102718.44;5024305;28;20079;-65
2022/10/18 08:35:57;;;;;;;31.75;20.92;;;;;;;15.49;100.00;102732.66;5023128;28;20025;-66
2022/10/18 08:38:23;;;;;;;35.22;21.55;;;;;;;16.03;100.00;102737.81;5024143;28;20018;-66
2022/10/18 08:40:48;;;;;;;30.75;19.83;;;;;;;17.14;100.00;102730.81;5024630;28;20532;-67
2022/10/18 08:44:05;;;;;;;24.27;16.38;;;;;;;18.23;100.00;102736.56;5023846;28;20022;-66
2022/10/18 08:46:32;;;;;;;24.48;14.95;;;;;;;19.70;86.93;102733.84;4990436;28;20108;-66
2022/10/18 08:48:59;;;;;;;24.95;13.75;;;;;;;19.56;82.31;102730.44;5023603;28;20035;-67
2022/10/18 08:51:39;;;;;;;22.50;13.90;;;;;;;19.22;85.12;102731.34;5023238;28;20038;-66
2022/10/18 08:54:14;;;;;;;20.48;13.93;;;;;;;20.19;83.72;102728.72;5023857;28;20480;-66
2022/10/18 08:56:57;;;;;;;20.13;13.00;;;;;;;21.98;79.74;102722.03;5022883;28;20075;-67
2022/10/18 08:59:23;;;;;;;20.52;12.38;;;;;;;23.65;64.64;102714.50;5023285;28;20032;-67
2022/10/18 09:02:26;;;;;;;15.57;10.30;;;;;;;24.80;62.75;102726.31;5023837;28;20029;-67
2022/10/18 09:05:13;;;;;;;20.60;11.70;;;;;;;25.75;56.95;102727.53;5024470;28;20449;-67
2022/10/18 09:08:00;;;;;;;15.85;9.75;;;;;;;26.32;54.24;102735.41;5027557;28;20138;-67
2022/10/18 09:10:38;;;;;;;15.73;10.00;;;;;;;27.06;57.13;102730.59;5027231;28;20327;-67
2022/10/18 09:13:14;;;;;;;17.73;10.13;;;;;;;27.14;55.92;102735.63;5026052;28;20474;-67
2022/10/18 09:16:02;;;;;;;17.83;9.35;;;;;;;27.66;56.87;102750.00;5027579;28;20071;-67
2022/10/18 09:18:30;;;;;;;15.27;8.82;;;;;;;27.18;47.95;102740.69;5026981;28;20030;-66
2022/10/18 09:20:58;;;;;;;14.70;8.90;;;;;;;27.14;48.20;102734.78;5026859;28;20034;-67
2022/10/18 09:23:42;;;;;;;13.57;8.77;;;;;;;27.71;54.29;102735.88;5027445;28;20444;-67
2022/10/18 09:26:19;;;;;;;12.80;8.57;;;;;;;27.87;51.63;102739.31;5027389;28;20112;-66
2022/10/18 09:29:06;;;;;;;18.20;9.00;;;;;;;28.58;50.90;102732.66;5026703;28;20021;-67
2022/10/18 09:31:46;;;;;;;14.50;8.93;;;;;;;28.34;44.47;102732.78;5027054;28;20035;-67
2022/10/18 09:34:20;;;;;;;16.13;8.95;;;;;;;28.42;46.12;102729.25;5026621;28;20163;-67
2022/10/18 09:36:46;;;;;;;15.57;8.45;;;;;;;28.68;43.55;102737.31;5026865;28;20028;-67
2022/10/18 09:39:15;;;;;;;13.13;7.78;;;;;;;29.15;41.41;102741.06;5025125;28;20033;-67
2022/10/18 09:41:46;;;;;;;13.50;8.25;;;;;;;29.23;42.37;102736.66;5025684;28;20030;-67
2022/10/18 09:44:17;;;;;;;14.10;7.85;;;;;;;29.16;40.93;102739.91;5026810;28;20033;-67
2022/10/18 09:46:48;;;;;;;14.98;8.13;;;;;;;29.00;40.32;102742.19;5026706;28;20435;-67
2022/10/18 09:49:30;;;;;;;14.35;8.07;;;;;;;28.84;44.62;102737.88;5025537;28;20021;-67
2022/10/18 09:51:58;;;;;;;13.68;7.90;;;;;;;28.99;39.35;102742.47;5025949;28;20029;-67
2022/10/18 09:54:33;;;;;;;13.82;7.82;;;;;;;29.64;41.31;102740.38;5025240;28;20480;-67
2022/10/18 09:57:25;;;;;;;12.45;7.63;;;;;;;30.39;44.61;102741.84;5025399;28;20156;-67
2022/10/18 09:59:50;;;;;;;11.80;7.20;;;;;;;29.97;39.11;102741.09;5026774;28;20396;-68
2022/10/18 10:02:19;;;;;;;16.15;6.45;;;;;;;30.75;36.15;102739.00;5025110;28;20025;-67
2022/10/18 10:04:45;;;;;;;11.35;6.60;;;;;;;30.72;36.02;102734.00;5026282;28;20290;-67
2022/10/18 10:07:28;;;;;;;12.40;6.88;;;;;;;30.95;36.87;102734.81;5025737;28;20053;-67
2022/10/18 10:10:12;;;;;;;11.40;6.63;;;;;;;31.23;39.22;102732.63;5026195;28;20104;-67
2022/10/18 10:12:39;;;;;;;14.45;7.40;;;;;;;30.89;36.46;102733.25;5025462;28;20030;-67
2022/10/18 10:15:27;;;;;;;12.40;6.27;;;;;;;31.26;35.41;102736.84;5026618;28;20101;-67
2022/10/18 10:18:35;;;;;;;9.88;5.00;;;;;;;31.77;38.95;102730.50;5024518;28;20288;-67
2022/10/18 10:21:06;;;;;;;10.30;5.45;;;;;;;31.55;33.42;102739.16;5025249;28;20496;-67
2022/10/18 10:23:36;;;;;;;12.65;5.15;;;;;;;31.56;33.95;102742.81;5026451;28;20432;-67
2022/10/18 10:26:05;;;;;;;14.57;5.93;;;;;;;31.37;34.46;102748.75;5025754;28;20022;-67
2022/10/18 10:28:42;;;;;;;10.60;5.53;;;;;;;31.23;35.08;102743.16;5025528;28;20033;-67
2022/10/18 10:31:24;;;;;;;10.68;5.38;;;;;;;32.09;35.71;102744.66;5025408;28;20035;-67
2022/10/18 10:34:05;;;;;;;13.23;5.78;;;;;;;32.62;36.29;102749.25;5025844;28;20036;-68
2022/10/18 10:36:32;;;;;;;11.52;5.40;;;;;;;32.47;31.81;102753.41;5025190;28;20569;-67
2022/10/18 10:39:03;;;;;;;8.90;4.80;;;;;;;32.54;33.66;102753.75;5025986;28;20028;-67
2022/10/18 10:41:29;;;;;;;11.07;5.35;;;;;;;32.22;31.41;102760.75;5025056;28;20087;-67
2022/10/18 10:43:54;;;;;;;11.05;4.97;;;;;;;32.05;33.71;102763.56;5025527;28;20533;-66
2022/10/18 10:46:21;;;;;;;9.57;4.72;;;;;;;32.12;32.54;102769.59;5025826;28;20580;-67
2022/10/18 10:48:53;;;;;;;8.75;3.97;;;;;;;32.17;31.86;102769.44;5026214;28;20031;-66
2022/10/18 10:51:31;;;;;;;10.15;4.07;;;;;;;32.06;34.92;102765.22;5024826;28;20400;-67
2022/10/18 10:54:14;;;;;;;9.15;4.03;;;;;;;32.04;31.50;102762.72;5025415;28;20022;-67
2022/10/18 10:57:18;;;;;;;10.32;3.95;;;;;;;32.54;33.68;102759.44;5024577;28;20120;-66
2022/10/18 10:59:49;;;;;;;9.90;4.10;;;;;;;32.38;31.94;102776.16;5024886;28;20044;-67
2022/10/18 11:02:17;;;;;;;9.20;3.78;;;;;;;32.10;31.79;102766.25;5025387;28;20033;-67
2022/10/18 11:04:54;;;;;;;9.90;3.63;;;;;;;32.01;34.66;102763.38;5025452;28;20049;-67
2022/10/18 11:07:38;;;;;;;9.45;2.78;;;;;;;32.06;33.15;102766.06;5025010;28;20389;-68
2022/10/18 11:10:09;;;;;;;6.10;2.80;;;;;;;31.66;33.51;102768.09;5024834;28;20017;-67
2022/10/18 11:12:46;;;;;;;8.27;3.58;;;;;;;31.92;33.29;102766.19;5024540;28;20325;-67
2022/10/18 11:15:24;;;;;;;7.85;2.63;;;;;;;32.16;33.38;102779.13;5025102;28;20091;-67